createdAt,value
2019-06-26T00:00:44.535Z,3.55
2019-06-26T00:03:19.802Z,4.08
2019-06-26T00:05:55.557Z,6.87
2019-06-26T00:08:29.942Z,6.20
2019-06-26T00:11:05.651Z,6.25
2019-06-26T00:13:41.742Z,3.17
2019-06-26T00:16:16.308Z,5.70
2019-06-26T00:18:51.237Z,3.47
2019-06-26T00:21:25.677Z,4.78
2019-06-26T00:24:00.459Z,4.20
2019-06-26T00:26:35.118Z,6.95
2019-06-26T00:29:10.862Z,7.60
2019-06-26T00:31:46.258Z,4.70
2019-06-26T00:34:22.005Z,4.83
2019-06-26T00:36:56.576Z,4.25
2019-06-26T00:39:39.807Z,3.55
2019-06-26T00:42:14.089Z,5.05
2019-06-26T00:44:50.065Z,4.08
2019-06-26T00:47:24.582Z,5.05
2019-06-26T00:49:59.842Z,2.17
2019-06-26T00:52:34.325Z,6.65
2019-06-26T00:55:09.602Z,8.18
2019-06-26T00:57:45.345Z,9.45
2019-06-26T01:00:20.079Z,4.72
2019-06-26T01:02:54.516Z,4.72
2019-06-26T01:05:28.988Z,4.53
2019-06-26T01:08:03.357Z,5.12
2019-06-26T01:10:37.868Z,6.28
2019-06-26T01:13:13.265Z,3.92
2019-06-26T01:15:47.983Z,5.12
2019-06-26T01:18:23.703Z,5.22
2019-06-26T01:20:59.119Z,4.85
2019-06-26T01:23:34.440Z,4.30
2019-06-26T01:26:09.233Z,5.97
2019-06-26T01:28:43.856Z,3.40
2019-06-26T01:31:18.651Z,4.12
2019-06-26T01:33:53.195Z,4.60
2019-06-26T01:36:27.687Z,9.03
2019-06-26T01:39:02.265Z,4.10
2019-06-26T01:41:37.857Z,4.22
2019-06-26T01:44:15.386Z,6.53
2019-06-26T01:46:49.154Z,11.00
2019-06-26T01:49:23.851Z,6.95
2019-06-26T01:52:01.379Z,4.55
2019-06-26T01:54:36.449Z,6.92
2019-06-26T01:57:11.964Z,7.70
2019-06-26T01:59:46.572Z,4.72
2019-06-26T02:02:21.593Z,9.80
2019-06-26T02:04:59.109Z,4.45
2019-06-26T02:07:34.051Z,5.90
2019-06-26T02:10:12.648Z,4.42
2019-06-26T02:12:47.464Z,2.87
2019-06-26T02:15:21.942Z,4.53
2019-06-26T02:17:57.763Z,3.25
2019-06-26T02:20:33.906Z,3.22
2019-06-26T02:23:08.587Z,2.77
2019-06-26T02:25:43.269Z,3.25
2019-06-26T02:28:18.133Z,3.17
2019-06-26T02:30:53.431Z,4.15
2019-06-26T02:33:28.783Z,5.67
2019-06-26T02:36:04.816Z,3.50
2019-06-26T02:38:48.302Z,3.92
2019-06-26T02:41:24.256Z,2.62
2019-06-26T02:43:58.977Z,3.22
2019-06-26T02:46:33.421Z,2.92
2019-06-26T02:49:07.858Z,3.08
2019-06-26T02:51:42.370Z,2.17
2019-06-26T02:54:16.976Z,2.98
2019-06-26T02:56:54.153Z,4.83
2019-06-26T02:59:28.809Z,3.22
2019-06-26T03:02:04.563Z,6.00
2019-06-26T03:04:39.068Z,9.20
2019-06-26T03:07:21.445Z,3.98
2019-06-26T03:09:58.043Z,4.85
2019-06-26T03:12:32.337Z,3.83
2019-06-26T03:15:13.537Z,3.50
2019-06-26T03:17:55.245Z,6.60
2019-06-26T03:20:34.430Z,5.03
2019-06-26T03:23:09.208Z,3.40
2019-06-26T03:25:45.292Z,5.45
2019-06-26T03:28:19.817Z,6.62
2019-06-26T03:30:54.122Z,4.47
2019-06-26T03:33:28.872Z,5.35
2019-06-26T03:36:07.578Z,5.05
2019-06-26T03:38:42.140Z,5.10
2019-06-26T03:41:18.343Z,8.55
2019-06-26T03:43:54.561Z,6.55
2019-06-26T03:46:29.139Z,7.65
2019-06-26T03:49:04.137Z,7.40
2019-06-26T03:51:39.519Z,6.87
2019-06-26T03:54:14.748Z,7.42
2019-06-26T03:56:50.816Z,8.63
2019-06-26T03:59:26.772Z,6.90
2019-06-26T04:02:02.382Z,7.25
2019-06-26T04:04:38.185Z,7.40
2019-06-26T04:07:12.567Z,9.28
2019-06-26T04:09:46.917Z,7.10
2019-06-26T04:12:21.527Z,6.50
2019-06-26T04:14:57.530Z,7.33
2019-06-26T04:17:32.425Z,11.35
2019-06-26T04:20:11.200Z,8.80
2019-06-26T04:22:47.694Z,8.75
2019-06-26T04:25:22.791Z,8.80
2019-06-26T04:27:57.609Z,9.18
2019-06-26T04:30:34.630Z,10.18
2019-06-26T04:33:09.134Z,9.30
2019-06-26T04:35:45.555Z,9.78
2019-06-26T04:38:20.163Z,14.28
2019-06-26T04:40:54.645Z,9.60
2019-06-26T04:43:32.588Z,10.63
2019-06-26T04:46:07.832Z,11.70
2019-06-26T04:48:45.308Z,12.35
2019-06-26T04:51:24.411Z,11.30
2019-06-26T04:54:01.120Z,13.68
2019-06-26T04:56:35.749Z,11.48
2019-06-26T04:59:14.365Z,12.45
2019-06-26T05:01:51.275Z,11.78
2019-06-26T05:04:29.939Z,12.15
2019-06-26T05:07:05.141Z,12.55
2019-06-26T05:09:40.665Z,11.53
2019-06-26T05:12:15.372Z,10.30
2019-06-26T05:14:51.284Z,10.58
2019-06-26T05:17:27.273Z,10.95
2019-06-26T05:20:12.210Z,9.90
2019-06-26T05:22:50.375Z,11.63
2019-06-26T05:25:24.880Z,11.00
2019-06-26T05:28:00.424Z,9.58
2019-06-26T05:30:35.600Z,10.30
2019-06-26T05:33:16.924Z,10.65
2019-06-26T05:35:52.795Z,11.78
2019-06-26T05:38:29.802Z,11.18
2019-06-26T05:41:05.595Z,10.70
2019-06-26T05:43:43.093Z,10.30
2019-06-26T05:46:30.670Z,11.75
2019-06-26T05:48:57.882Z,10.72
2019-06-26T05:51:33.895Z,11.80
2019-06-26T05:54:10.306Z,10.98
2019-06-26T05:56:45.576Z,10.72
2019-06-26T05:59:20.357Z,11.35
2019-06-26T06:01:54.753Z,12.05
2019-06-26T06:04:30.361Z,15.93
2019-06-26T06:07:05.849Z,12.45
2019-06-26T06:09:41.536Z,9.28
2019-06-26T06:12:16.150Z,9.13
2019-06-26T06:14:50.742Z,7.53
2019-06-26T06:17:25.275Z,7.87
2019-06-26T06:19:59.582Z,7.72
2019-06-26T06:22:34.583Z,8.05
2019-06-26T06:25:10.335Z,8.40
2019-06-26T06:27:44.910Z,8.03
2019-06-26T06:30:19.463Z,8.13
2019-06-26T06:32:54.793Z,8.08
2019-06-26T06:35:33.492Z,8.23
2019-06-26T06:38:08.156Z,10.60
2019-06-26T06:40:46.593Z,10.28
2019-06-26T06:43:21.236Z,10.23
2019-06-26T06:45:55.757Z,10.30
2019-06-26T06:48:31.985Z,13.50
2019-06-26T06:51:14.269Z,20.97
2019-06-26T06:53:48.758Z,16.97
2019-06-26T06:56:24.256Z,11.97
2019-06-26T06:59:06.735Z,11.78
2019-06-26T07:01:43.608Z,10.98
2019-06-26T07:04:21.614Z,10.23
2019-06-26T07:06:58.827Z,9.75
2019-06-26T07:09:32.485Z,10.30
2019-06-26T07:12:09.236Z,9.88
2019-06-26T07:14:45.150Z,9.23
2019-06-26T07:17:21.445Z,9.35
2019-06-26T07:19:57.066Z,9.25
2019-06-26T07:22:32.980Z,8.88
2019-06-26T07:25:07.735Z,8.43
2019-06-26T07:27:42.274Z,9.20
2019-06-26T07:30:17.928Z,9.00
2019-06-26T07:32:53.541Z,8.50
2019-06-26T07:35:29.252Z,8.63
2019-06-26T07:38:04.560Z,8.20
2019-06-26T07:40:42.541Z,7.92
2019-06-26T07:43:20.633Z,8.03
2019-06-26T07:45:58.939Z,7.83
2019-06-26T07:48:33.866Z,8.53
2019-06-26T07:51:10.344Z,8.90
2019-06-26T07:53:47.187Z,8.20
2019-06-26T07:56:22.118Z,8.83
2019-06-26T07:58:59.033Z,8.65
2019-06-26T08:01:40.206Z,9.10
2019-06-26T08:04:16.009Z,8.20
2019-06-26T08:06:53.748Z,9.20
2019-06-26T08:09:28.301Z,9.70
2019-06-26T08:12:06.842Z,10.50
2019-06-26T08:14:42.342Z,9.50
2019-06-26T08:17:17.091Z,10.28
2019-06-26T08:19:51.771Z,13.05
2019-06-26T08:22:26.322Z,12.30
2019-06-26T08:25:01.351Z,10.25
2019-06-26T08:27:40.194Z,10.15
2019-06-26T08:30:15.605Z,10.30
2019-06-26T08:32:53.081Z,10.65
2019-06-26T08:35:27.491Z,10.05
2019-06-26T08:38:10.244Z,8.48
2019-06-26T08:40:38.465Z,7.75
2019-06-26T08:43:12.803Z,8.90
2019-06-26T08:45:48.785Z,11.50
2019-06-26T08:48:38.892Z,7.47
2019-06-26T08:51:04.166Z,7.67
2019-06-26T08:53:39.016Z,7.80
2019-06-26T08:56:14.860Z,7.65
2019-06-26T08:58:50.159Z,7.15
2019-06-26T09:01:25.537Z,6.83
2019-06-26T09:04:04.376Z,10.95
2019-06-26T09:06:39.254Z,9.55
2019-06-26T09:09:13.753Z,6.78
2019-06-26T09:11:48.296Z,6.75
2019-06-26T09:14:24.610Z,9.20
2019-06-26T09:16:58.978Z,9.10
2019-06-26T09:19:37.640Z,8.23
2019-06-26T09:22:12.049Z,7.85
2019-06-26T09:24:46.672Z,7.22
2019-06-26T09:27:21.147Z,6.60
2019-06-26T09:29:57.157Z,6.62
2019-06-26T09:32:31.932Z,7.22
2019-06-26T09:35:06.884Z,7.35
2019-06-26T09:37:42.515Z,8.80
2019-06-26T09:40:18.116Z,10.13
2019-06-26T09:42:54.206Z,8.85
2019-06-26T09:45:28.889Z,9.83
2019-06-26T09:48:03.415Z,15.10
2019-06-26T09:50:38.199Z,14.28
2019-06-26T09:53:12.675Z,11.55
2019-06-26T09:55:48.472Z,10.90
2019-06-26T09:58:22.976Z,9.48
2019-06-26T10:00:57.307Z,9.33
2019-06-26T10:03:33.619Z,8.58
2019-06-26T10:06:09.477Z,8.53
2019-06-26T10:08:45.234Z,11.43
2019-06-26T10:11:21.027Z,9.70
2019-06-26T10:13:55.982Z,10.95
2019-06-26T10:16:31.426Z,8.28
2019-06-26T10:19:10.531Z,8.68
2019-06-26T10:21:43.198Z,7.90
2019-06-26T10:24:17.787Z,9.00
2019-06-26T10:26:53.401Z,7.72
2019-06-26T10:29:30.868Z,7.75
2019-06-26T10:32:05.264Z,9.15
2019-06-26T10:34:39.910Z,9.05
2019-06-26T10:37:14.523Z,8.15
2019-06-26T10:39:49.140Z,8.48
2019-06-26T10:42:24.912Z,6.00
2019-06-26T10:44:59.490Z,7.72
2019-06-26T10:47:34.326Z,6.53
2019-06-26T10:50:11.660Z,6.72
2019-06-26T10:52:46.714Z,6.65
2019-06-26T10:55:22.255Z,5.47
2019-06-26T10:57:57.113Z,5.45
2019-06-26T11:00:32.822Z,5.30
2019-06-26T11:03:07.594Z,5.83
2019-06-26T11:05:41.940Z,5.53
2019-06-26T11:08:17.878Z,10.58
2019-06-26T11:10:52.357Z,6.28
2019-06-26T11:13:31.025Z,6.67
2019-06-26T11:16:05.508Z,6.08
2019-06-26T11:18:41.351Z,6.72
2019-06-26T11:21:15.675Z,8.00
2019-06-26T11:23:50.267Z,8.48
2019-06-26T11:26:25.073Z,6.87
2019-06-26T11:28:59.437Z,13.43
2019-06-26T11:31:33.939Z,11.43
2019-06-26T11:34:08.413Z,11.53
2019-06-26T11:36:43.306Z,10.05
2019-06-26T11:39:18.030Z,9.65
2019-06-26T11:42:14.993Z,8.45
2019-06-26T11:44:58.773Z,7.92
2019-06-26T11:47:33.227Z,7.70
2019-06-26T11:50:09.814Z,8.53
2019-06-26T11:52:44.863Z,9.43
2019-06-26T11:55:20.786Z,9.55
2019-06-26T11:57:55.237Z,6.42
2019-06-26T12:00:31.132Z,7.83
2019-06-26T12:03:06.390Z,12.18
2019-06-26T12:05:41.069Z,8.25
2019-06-26T12:08:18.514Z,8.80
2019-06-26T12:10:53.896Z,9.03
2019-06-26T12:13:28.286Z,13.00
2019-06-26T12:16:05.518Z,9.88
2019-06-26T12:18:41.434Z,10.25
2019-06-26T12:21:18.320Z,9.88
2019-06-26T12:23:54.505Z,11.83
2019-06-26T12:26:32.400Z,8.83
2019-06-26T12:29:06.855Z,10.55
2019-06-26T12:31:42.254Z,12.88
2019-06-26T12:34:17.731Z,10.18
2019-06-26T12:36:52.180Z,11.40
2019-06-26T12:39:27.783Z,12.18
2019-06-26T12:42:06.606Z,11.55
2019-06-26T12:44:43.630Z,11.55
2019-06-26T12:47:19.085Z,8.78
2019-06-26T12:49:59.809Z,11.10
2019-06-26T12:52:45.205Z,12.63
2019-06-26T12:55:21.630Z,10.58
2019-06-26T12:58:11.792Z,10.58
2019-06-26T13:00:40.636Z,9.13
2019-06-26T13:03:19.727Z,13.18
2019-06-26T13:05:55.159Z,9.00
2019-06-26T13:08:30.754Z,12.65
2019-06-26T13:11:10.353Z,8.58
2019-06-26T13:14:01.360Z,10.28
2019-06-26T13:16:22.348Z,12.30
2019-06-26T13:18:58.683Z,10.65
2019-06-26T13:21:38.913Z,10.13
2019-06-26T13:24:15.123Z,11.35
2019-06-26T13:26:49.685Z,10.48
2019-06-26T13:29:25.536Z,12.80
2019-06-26T13:32:00.411Z,11.18
2019-06-26T13:34:38.059Z,11.85
2019-06-26T13:37:15.464Z,7.75
2019-06-26T13:39:50.687Z,8.20
2019-06-26T13:42:27.884Z,10.53
2019-06-26T13:45:05.627Z,7.90
2019-06-26T13:47:39.726Z,7.62
2019-06-26T13:50:17.837Z,6.90
2019-06-26T13:52:54.794Z,6.60
2019-06-26T13:55:30.543Z,9.45
2019-06-26T13:58:05.038Z,6.40
2019-06-26T14:00:52.038Z,9.85
2019-06-26T14:03:28.132Z,6.05
2019-06-26T14:06:06.576Z,5.75
2019-06-26T14:08:44.139Z,6.67
2019-06-26T14:11:22.418Z,7.03
2019-06-26T14:14:01.075Z,8.00
2019-06-26T14:16:37.490Z,3.90
2019-06-26T14:19:14.459Z,6.87
2019-06-26T14:21:54.795Z,7.00
2019-06-26T14:24:30.169Z,4.97
2019-06-26T14:27:08.819Z,8.65
2019-06-26T14:29:44.524Z,8.10
2019-06-26T14:32:22.138Z,13.35
2019-06-26T14:35:01.742Z,8.93
2019-06-26T14:37:41.700Z,8.03
2019-06-26T14:40:16.261Z,8.10
2019-06-26T14:42:52.730Z,5.58
2019-06-26T14:45:27.231Z,5.90
2019-06-26T14:48:07.719Z,10.60
2019-06-26T14:50:42.287Z,5.80
2019-06-26T14:53:25.431Z,12.63
2019-06-26T14:56:03.613Z,6.50
2019-06-26T14:58:40.345Z,13.08
2019-06-26T15:01:15.073Z,9.50
2019-06-26T15:03:51.901Z,8.40
2019-06-26T15:06:29.967Z,7.65
2019-06-26T15:09:16.598Z,6.47
2019-06-26T15:11:53.285Z,7.60
2019-06-26T15:14:35.371Z,3.62
2019-06-26T15:17:13.762Z,7.13
2019-06-26T15:19:51.657Z,13.15
2019-06-26T15:22:29.170Z,6.40
2019-06-26T15:28:09.340Z,7.47
2019-06-26T15:33:53.702Z,8.38
2019-06-26T15:36:31.808Z,6.90
2019-06-26T15:39:10.202Z,6.70
2019-06-26T15:41:54.457Z,6.37
2019-06-26T15:44:32.084Z,10.05
2019-06-26T15:47:08.542Z,8.15
2019-06-26T15:52:43.067Z,10.00
2019-06-26T15:55:25.327Z,8.18
2019-06-26T15:58:14.244Z,7.03
2019-06-26T16:00:50.923Z,8.40
2019-06-26T16:03:32.929Z,9.28
2019-06-26T16:06:13.019Z,4.97
2019-06-26T16:08:55.818Z,9.23
2019-06-26T16:11:29.678Z,5.70
2019-06-26T16:14:07.174Z,6.62
2019-06-26T16:16:43.843Z,7.50
2019-06-26T16:19:22.626Z,8.55
2019-06-26T16:21:58.172Z,8.65
2019-06-26T16:24:33.746Z,8.10
2019-06-26T16:27:09.745Z,6.70
2019-06-26T16:29:48.677Z,5.47
2019-06-26T16:32:27.791Z,7.80
2019-06-26T16:35:20.016Z,13.62
2019-06-26T16:37:58.231Z,8.00
2019-06-26T16:40:44.926Z,4.22
2019-06-26T16:43:20.646Z,6.20
2019-06-26T16:45:57.937Z,3.42
2019-06-26T16:48:33.625Z,6.95
2019-06-26T16:51:13.957Z,4.42
2019-06-26T16:53:52.997Z,8.68
2019-06-26T16:56:30.415Z,6.60
2019-06-26T16:59:05.207Z,9.05
2019-06-26T17:01:42.218Z,10.43
2019-06-26T17:04:16.770Z,8.55
2019-06-26T17:06:54.379Z,9.23
2019-06-26T17:09:36.606Z,6.50
2019-06-26T17:12:13.253Z,4.40
2019-06-26T17:14:49.141Z,9.75
2019-06-26T17:17:26.882Z,8.88
2019-06-26T17:20:06.425Z,5.12
2019-06-26T17:23:01.093Z,6.12
2019-06-26T17:25:25.711Z,8.65
2019-06-26T17:28:10.087Z,7.22
2019-06-26T17:30:48.421Z,8.78
2019-06-26T17:33:24.397Z,5.28
2019-06-26T17:36:00.553Z,5.55
2019-06-26T17:38:36.045Z,7.62
2019-06-26T17:41:12.309Z,9.73
2019-06-26T17:43:48.323Z,7.92
2019-06-26T17:46:22.609Z,9.30
2019-06-26T17:48:59.369Z,7.10
2019-06-26T17:51:36.217Z,8.55
2019-06-26T17:54:14.286Z,6.87
2019-06-26T17:56:50.155Z,9.78
2019-06-26T17:59:27.516Z,7.67
2019-06-26T18:02:01.696Z,7.10
2019-06-26T18:04:37.391Z,5.17
2019-06-26T18:07:14.593Z,5.22
2019-06-26T18:09:49.032Z,8.80
2019-06-26T18:12:23.524Z,8.83
2019-06-26T18:15:00.669Z,9.98
2019-06-26T18:17:34.862Z,5.50
2019-06-26T18:20:10.595Z,7.20
2019-06-26T18:22:45.239Z,10.45
2019-06-26T18:25:20.552Z,8.00
2019-06-26T18:27:55.219Z,7.42
2019-06-26T18:30:32.911Z,6.70
2019-06-26T18:33:07.835Z,10.45
2019-06-26T18:35:42.228Z,7.50
2019-06-26T18:38:17.114Z,7.22
2019-06-26T18:40:51.757Z,7.45
2019-06-26T18:43:26.231Z,8.88
2019-06-26T18:46:02.237Z,6.10
2019-06-26T18:48:37.120Z,5.95
2019-06-26T18:51:12.111Z,3.58
2019-06-26T18:53:53.398Z,7.15
2019-06-26T18:56:23.052Z,7.05
2019-06-26T18:58:57.678Z,6.97
2019-06-26T19:01:32.312Z,6.87
2019-06-26T19:04:06.850Z,5.10
2019-06-26T19:06:41.268Z,7.58
2019-06-26T19:09:15.764Z,4.97
2019-06-26T19:11:51.422Z,4.85
2019-06-26T19:14:26.813Z,6.00
2019-06-26T19:17:02.432Z,5.28
2019-06-26T19:19:37.435Z,6.58
2019-06-26T19:22:12.886Z,4.10
2019-06-26T19:24:47.154Z,6.22
2019-06-26T19:27:21.488Z,7.92
2019-06-26T19:29:55.761Z,3.58
2019-06-26T19:32:30.043Z,2.85
2019-06-26T19:35:20.222Z,5.25
2019-06-26T19:37:40.212Z,6.00
2019-06-26T19:40:14.880Z,3.22
2019-06-26T19:42:49.423Z,2.47
2019-06-26T19:45:23.924Z,3.05
2019-06-26T19:47:58.514Z,7.47
2019-06-26T19:50:33.292Z,10.63
2019-06-26T19:53:08.809Z,3.25
2019-06-26T19:55:43.248Z,8.18
2019-06-26T19:58:21.332Z,5.85
2019-06-26T20:00:53.382Z,5.67
2019-06-26T20:03:27.736Z,8.23
2019-06-26T20:06:02.215Z,5.35
2019-06-26T20:08:51.424Z,6.37
2019-06-26T20:11:14.042Z,4.25
2019-06-26T20:13:48.583Z,6.58
2019-06-26T20:16:22.912Z,10.08
2019-06-26T20:18:57.315Z,5.83
2019-06-26T20:21:31.718Z,9.05
2019-06-26T20:24:06.260Z,3.45
2019-06-26T20:26:42.543Z,4.70
2019-06-26T20:29:19.901Z,4.65
2019-06-26T20:31:54.160Z,3.30
2019-06-26T20:34:28.622Z,6.70
2019-06-26T20:37:04.212Z,5.53
2019-06-26T20:39:39.089Z,5.65
2019-06-26T20:42:13.443Z,6.55
2019-06-26T20:44:48.782Z,4.83
2019-06-26T20:47:23.106Z,8.43
2019-06-26T20:49:57.599Z,4.05
2019-06-26T20:52:31.905Z,6.22
2019-06-26T20:55:06.748Z,4.87
2019-06-26T20:57:42.042Z,5.28
2019-06-26T21:00:16.858Z,4.35
2019-06-26T21:02:54.177Z,7.17
2019-06-26T21:05:28.914Z,4.67
2019-06-26T21:08:03.355Z,5.70
2019-06-26T21:10:37.865Z,3.85
2019-06-26T21:13:12.530Z,3.70
2019-06-26T21:15:46.757Z,7.00
2019-06-26T21:18:22.454Z,7.03
2019-06-26T21:20:57.768Z,4.35
2019-06-26T21:23:32.123Z,4.30
2019-06-26T21:26:06.845Z,3.40
2019-06-26T21:28:42.531Z,3.22
2019-06-26T21:31:16.879Z,9.30
2019-06-26T21:33:51.196Z,4.35
2019-06-26T21:36:26.611Z,4.47
2019-06-26T21:39:04.962Z,5.60
2019-06-26T21:41:37.890Z,4.67
2019-06-26T21:44:12.290Z,6.58
2019-06-26T21:46:48.699Z,6.10
2019-06-26T21:49:23.080Z,9.48
2019-06-26T21:51:57.371Z,8.48
2019-06-26T21:54:31.924Z,6.55
2019-06-26T21:57:24.043Z,6.22
2019-06-26T22:00:17.286Z,5.62
2019-06-26T22:03:09.410Z,5.05
2019-06-26T22:05:44.960Z,6.65
2019-06-26T22:08:23.853Z,6.00
2019-06-26T22:11:05.294Z,4.85
2019-06-26T22:13:39.590Z,7.95
2019-06-26T22:16:13.986Z,5.30
2019-06-26T22:18:48.759Z,6.03
2019-06-26T22:21:23.088Z,6.65
2019-06-26T22:23:57.490Z,6.67
2019-06-26T22:26:31.984Z,5.03
2019-06-26T22:29:06.331Z,5.67
2019-06-26T22:31:40.570Z,10.30
2019-06-26T22:34:18.347Z,3.52
2019-06-26T22:36:52.780Z,4.65
2019-06-26T22:39:27.063Z,6.10
2019-06-26T22:42:01.504Z,6.33
2019-06-26T22:44:36.032Z,4.47
2019-06-26T22:47:11.340Z,7.00
2019-06-26T22:49:45.744Z,5.22
2019-06-26T22:52:20.148Z,4.62
2019-06-26T22:54:54.654Z,5.35
2019-06-26T22:57:29.142Z,5.80
2019-06-26T23:00:03.609Z,5.67
2019-06-26T23:02:39.133Z,3.55
2019-06-26T23:05:13.818Z,6.97
2019-06-26T23:07:48.202Z,5.58
2019-06-26T23:10:22.649Z,9.40
2019-06-26T23:12:57.379Z,13.28
2019-06-26T23:15:31.713Z,7.35
2019-06-26T23:18:07.141Z,9.10
2019-06-26T23:20:41.732Z,11.15
2019-06-26T23:23:16.281Z,7.55
2019-06-26T23:25:50.861Z,6.92
2019-06-26T23:28:25.199Z,9.38
2019-06-26T23:30:59.760Z,9.93
2019-06-26T23:33:34.588Z,26.35
2019-06-26T23:36:10.082Z,31.48
2019-06-26T23:38:45.650Z,17.25
2019-06-26T23:41:20.016Z,13.22
2019-06-26T23:43:54.529Z,18.60
2019-06-26T23:46:28.965Z,28.52
2019-06-26T23:49:03.444Z,15.25
2019-06-26T23:51:37.751Z,13.30
2019-06-26T23:54:12.215Z,9.13
2019-06-26T23:56:46.593Z,5.83
2019-06-26T23:59:21.004Z,8.43
